• Join FlightAware (Why Join?)
  • Login
  • US Flag 
03:21AM EDT


 

Airport Tracker/Info


-or-


 

Live Flight TrackerFlight Track Log ✈ N2930Y ✈ 05-Aug-2013 ✈ KOSU - KPTK

Flight Track Log - Related Links

Times and Time Zones

All times are in EDT time to prevent confusion due to time zone crossing. See the N2930Y flight status page for this flight to view local times or setup timezone preferences in your user account.

Time Position Orientation Groundspeed Altitude Reporting Facility
EDT Latitude Longitude Course Direction KTS MPH feet Rate Location/Type
03:02PM 40.0761 -83.0803 271° West 114 131 1,100  Level Indianapolis Center
03:03PM 40.0767 -83.1189 271° West 104 120 2,000 780 Climbing Indianapolis Center
03:04PM 40.1028 -83.1314 340° North 108 124 2,800 780 Climbing Indianapolis Center
03:04PM 40.1228 -83.1428 336° Northwest 100 115 3,500 540 Climbing Indianapolis Center
03:06PM 40.1589 -83.1597 340° North 123 142 4,000 240 Climbing Indianapolis Center
03:07PM 40.2017 -83.1747 345° North 136 157 4,100  Climbing Indianapolis Center
03:08PM 40.2342 -83.1856 346° North 147 169 4,100  Level Indianapolis Center
03:09PM 40.2783 -83.2067 340° North 146 168 4,100 -60 Level Indianapolis Center
03:11PM 40.3383 -83.2193 351° North  Level FlightAware Approximate
03:18PM 40.5819 -83.2932 342° North  Level FlightAware Approximate
03:19PM 40.6155 -83.3079 342° North  Level FlightAware Approximate
03:20PM 40.6491 -83.3226 342° North  Level FlightAware Approximate
03:21PM 40.6827 -83.3374 342° North  Level FlightAware Approximate
03:22PM 40.7162 -83.3522 342° North  Level FlightAware Approximate
03:23PM 40.7498 -83.3670 342° North  Level FlightAware Approximate
03:24PM 40.7834 -83.3818 342° North  Level FlightAware Approximate
03:25PM 40.8170 -83.3966 342° North  Level FlightAware Approximate
03:26PM 40.8505 -83.4114 342° North  Level FlightAware Approximate
03:27PM 40.8841 -83.4263 342° North  Level FlightAware Approximate
03:28PM 40.9177 -83.4410 342° North  Level FlightAware Approximate
03:29PM 40.9513 -83.4555 342° North  Level FlightAware Approximate
03:30PM 40.9850 -83.4701 342° North  Level FlightAware Approximate
03:31PM 41.0186 -83.4847 342° North  Level FlightAware Approximate
03:32PM 41.0522 -83.4993 342° North  Level FlightAware Approximate
03:33PM 41.0859 -83.5139 342° North  Level FlightAware Approximate
03:34PM 41.1195 -83.5285 342° North  Level FlightAware Approximate
03:35PM 41.1531 -83.5432 342° North  Level FlightAware Approximate
03:36PM 41.1868 -83.5578 342° North  Level FlightAware Approximate
03:37PM 41.2204 -83.5725 342° North  Level FlightAware Approximate
03:38PM 41.2540 -83.5872 342° North  Level FlightAware Approximate
03:39PM 41.2877 -83.6020 341° North  Level FlightAware Approximate
03:40PM 41.3211 -83.6172 341° North  Level FlightAware Approximate
03:41PM 41.3546 -83.6325 341° North  Level FlightAware Approximate
03:42PM 41.3881 -83.6478 341° North  Level FlightAware Approximate
03:43PM 41.4216 -83.6631 341° North  Level FlightAware Approximate
03:44PM 41.4551 -83.6784 341° North  Level FlightAware Approximate
03:45PM 41.4885 -83.6938 341° North  Level FlightAware Approximate
03:46PM 41.5220 -83.7091 341° North  Level FlightAware Approximate
03:47PM 41.5555 -83.7245 341° North  Level FlightAware Approximate
03:47PM 41.7269 -83.5797 20° North 147 169 4,000  Level Cleveland Center
03:47PM 41.7603 -83.5786 North 146 168 4,000  Level Cleveland Center
03:48PM 41.5890 -83.7399 341° North  Level FlightAware Approximate
03:48PM 41.8000 -83.5747 North 150 173 4,000  Level Cleveland Center
03:49PM 41.6224 -83.7553 341° North  Level FlightAware Approximate
03:49PM 41.8350 -83.5931 339° North 143 165 4,000  Level Cleveland Center
03:50PM 41.6559 -83.7707 341° North  Level FlightAware Approximate
03:50PM 41.8761 -83.6144 339° North 143 165 3,900  Level Cleveland Center
03:51PM 41.6893 -83.7803 20° North  Level FlightAware Approximate
03:52PM 41.7225 -83.7638 20° North  Level FlightAware Approximate
03:52PM 41.9172 -83.6361 339° North 141 162 4,000  Level Cleveland Center
03:53PM 41.9606 -83.6578 340° North 145 167 3,900 -60 Descending Cleveland Center
03:54PM 41.9914 -83.6731 340° North 145 167 3,900  Level Cleveland Center
03:55PM 42.0347 -83.6864 347° North 146 168 3,900  Level Cleveland Center
03:56PM 42.0742 -83.6911 355° North 152 175 4,000 60 Climbing Cleveland Center
03:57PM 42.1136 -83.6958 355° North 146 168 4,100  Climbing Cleveland Center
03:58PM 42.1533 -83.6978 358° North 147 169 4,100  Level Cleveland Center
03:59PM 42.1947 -83.7056 352° North 146 168 4,100  Level Cleveland Center
04:00PM 42.2367 -83.6936 12° North 155 178 4,100 -60 Level Cleveland Center
04:01PM 42.2750 -83.6644 29° Northeast 156 180 4,000 -60 Descending Cleveland Center
04:02PM 42.3131 -83.6494 16° North 152 175 4,000  Level Cleveland Center
04:03PM 42.3472 -83.6203 32° Northeast 147 169 4,000  Level Cleveland Center
04:04PM 42.3850 -83.6025 19° North 147 169 4,000  Level Cleveland Center
04:05PM 42.4278 -83.5706 29° Northeast 149 171 4,000 -180 Level Cleveland Center
04:06PM 42.4658 -83.5472 24° Northeast 167 192 3,700 -420 Descending Cleveland Center
04:07PM 42.5081 -83.5211 25° Northeast 162 186 3,200 -420 Descending Cleveland Center
04:08PM 42.5469 -83.4747 41° Northeast 154 177 2,900 -240 Descending Cleveland Center
04:09PM 42.5747 -83.4422 41° Northeast 152 175 2,800 -360 Descending Cleveland Center
04:10PM 42.6053 -83.3928 50° Northeast 164 189 2,300 -540 Descending Cleveland Center
04:11PM 42.6389 -83.3803 15° North 119 137 1,700 -600 Descending Cleveland Center
04:13PM 42.6500 -83.4167 North  Level FlightAware Approximate
04:20PM 42.6656 -83.4205 North  Level Estimated
04:21PM 42.6656 -83.4205 North  Level Estimated